Time;durP1;ratioP1;P1;durP2;ratioP2;P2;SDS_P1;SDS_P2;PMS_P1;PMS_P2;Temp;Humidity;BMP_temperature;BMP_pressure;BME280_temperature;BME280_humidity;BME280_pressure;Samples;Min_cycle;Max_cycle;Signal;HPM_P1;HPM_P2
2022/12/02 00:01:27;;;;;;;12.85;2.60;;;21.30;99.30;;;;;;5055187;28;20421;-87
2022/12/02 00:03:56;;;;;;;7.30;1.92;;;21.50;99.10;;;;;;5068536;28;20378;-84
2022/12/02 00:06:29;;;;;;;5.38;1.70;;;21.80;96.70;;;;;;5062317;28;20384;-85
2022/12/02 00:09:05;;;;;;;5.50;1.67;;;22.20;94.70;;;;;;5043729;28;21323;-87
2022/12/02 00:11:32;;;;;;;5.53;1.77;;;22.80;93.20;;;;;;5068900;28;20401;-85
2022/12/02 00:14:05;;;;;;;5.17;1.80;;;23.00;92.00;;;;;;5068562;28;20838;-87
2022/12/02 00:16:31;;;;;;;6.15;1.75;;;23.10;91.30;;;;;;5068800;28;20385;-83
2022/12/02 00:18:58;;;;;;;5.13;1.48;;;23.30;90.80;;;;;;5067910;28;20378;-84
2022/12/02 00:21:25;;;;;;;4.33;1.60;;;23.50;87.50;;;;;;5053360;28;20390;-87
2022/12/02 00:23:52;;;;;;;5.60;1.60;;;23.90;85.90;;;;;;5053583;28;20521;-84
2022/12/02 00:26:19;;;;;;;5.40;1.75;;;24.10;85.20;;;;;;5050206;28;20804;-83
2022/12/02 00:28:46;;;;;;;5.40;1.77;;;24.20;85.00;;;;;;5067052;28;20374;-83
2022/12/02 00:31:13;;;;;;;5.07;1.73;;;24.20;83.30;;;;;;5067597;28;20378;-84
2022/12/02 00:33:40;;;;;;;4.25;1.70;;;24.10;83.20;;;;;;5068531;28;20893;-83
2022/12/02 00:36:07;;;;;;;3.88;1.40;;;24.00;82.60;;;;;;5067081;28;20409;-84
2022/12/02 00:38:34;;;;;;;5.35;1.52;;;24.00;79.90;;;;;;5066801;28;20379;-87
2022/12/02 00:41:02;;;;;;;3.28;1.30;;;23.90;77.20;;;;;;5067034;28;20753;-84
2022/12/02 00:46:32;;;;;;;2.80;1.30;;;24.20;76.00;;;;;;5043803;28;20424;-84
2022/12/02 00:49:01;;;;;;;4.18;1.40;;;24.50;74.70;;;;;;5066680;28;20431;-83
2022/12/02 00:51:28;;;;;;;5.53;1.60;;;24.70;73.70;;;;;;5067145;28;20374;-87
2022/12/02 00:53:55;;;;;;;4.80;1.40;;;24.80;73.90;;;;;;5066888;28;20731;-83
2022/12/02 00:56:22;;;;;;;4.57;1.35;;;24.70;73.90;;;;;;5048914;28;20382;-84
2022/12/02 00:58:50;;;;;;;4.03;1.40;;;24.40;72.70;;;;;;5052914;28;21202;-86
2022/12/02 01:01:17;;;;;;;4.30;1.40;;;24.20;73.20;;;;;;5067057;28;20387;-87
2022/12/02 01:03:44;;;;;;;4.00;1.33;;;24.10;74.20;;;;;;5066794;28;20406;-86
2022/12/02 01:06:11;;;;;;;4.25;1.20;;;24.10;74.70;;;;;;5067089;28;20478;-84
2022/12/02 01:08:38;;;;;;;4.03;1.23;;;24.20;74.10;;;;;;5067303;28;20402;-90
2022/12/02 01:11:05;;;;;;;3.47;1.20;;;24.40;72.90;;;;;;5067773;28;20461;-84
2022/12/02 01:13:33;;;;;;;2.50;1.20;;;24.50;72.70;;;;;;5062420;28;20380;-83
2022/12/02 01:16:00;;;;;;;5.25;1.20;;;24.50;72.30;;;;;;5067886;28;20374;-83
2022/12/02 01:18:26;;;;;;;4.00;1.30;;;24.60;70.90;;;;;;5072295;28;20790;-83
2022/12/02 01:20:53;;;;;;;5.07;1.48;;;24.60;70.60;;;;;;5071726;28;20397;-83
2022/12/02 01:23:21;;;;;;;2.97;1.00;;;24.50;71.40;;;;;;5069563;28;20444;-83
2022/12/02 01:25:48;;;;;;;3.97;1.10;;;24.60;71.10;;;;;;5051478;28;20535;-84
2022/12/02 01:28:16;;;;;;;3.33;1.10;;;24.80;70.70;;;;;;5051383;28;20371;-83
2022/12/02 01:30:44;;;;;;;3.08;1.10;;;25.10;70.00;;;;;;5051444;28;20783;-84
2022/12/02 01:33:11;;;;;;;3.95;1.30;;;25.40;67.10;;;;;;5032494;28;20764;-83
2022/12/02 01:35:38;;;;;;;3.50;1.20;;;25.60;68.50;;;;;;5037277;28;20791;-88
2022/12/02 01:38:06;;;;;;;4.72;1.27;;;25.70;67.20;;;;;;5034152;28;20391;-83
2022/12/02 01:40:33;;;;;;;4.25;1.20;;;25.90;67.80;;;;;;5051044;28;20375;-85
2022/12/02 01:43:00;;;;;;;2.60;1.00;;;26.00;67.00;;;;;;5033134;28;20441;-86
2022/12/02 01:45:27;;;;;;;3.83;1.30;;;26.00;65.40;;;;;;5050327;28;20403;-85
2022/12/02 01:47:55;;;;;;;5.00;1.20;;;26.10;64.20;;;;;;5050846;28;20435;-83
2022/12/02 01:50:23;;;;;;;3.42;1.30;;;26.00;64.70;;;;;;5050857;28;20403;-83
2022/12/02 01:52:50;;;;;;;3.30;1.23;;;25.90;64.90;;;;;;5050700;28;20368;-83
2022/12/02 01:55:21;;;;;;;2.78;1.30;;;25.90;65.30;;;;;;5051243;28;20399;-84
2022/12/02 01:57:48;;;;;;;4.28;1.30;;;25.60;65.60;;;;;;5050412;28;20950;-83
2022/12/02 02:00:16;;;;;;;4.20;1.40;;;25.40;64.30;;;;;;5049826;28;20388;-84
2022/12/02 02:02:45;;;;;;;2.58;1.20;;;25.10;65.10;;;;;;5049930;28;20368;-84
2022/12/02 02:05:14;;;;;;;3.33;1.10;;;24.80;66.50;;;;;;5049992;28;20442;-87
2022/12/02 02:07:47;;;;;;;2.70;1.15;;;24.80;66.50;;;;;;5050012;28;20368;-84
2022/12/02 02:10:14;;;;;;;5.22;1.40;;;25.10;67.40;;;;;;5050265;28;20440;-85
2022/12/02 02:12:41;;;;;;;3.80;1.15;;;25.30;66.80;;;;;;5050328;28;20437;-85
2022/12/02 02:15:10;;;;;;;5.35;1.50;;;25.60;66.70;;;;;;5051842;28;20382;-85
2022/12/02 02:17:38;;;;;;;3.88;1.30;;;25.60;67.20;;;;;;5050651;28;20376;-83
2022/12/02 02:20:08;;;;;;;3.25;1.20;;;25.90;64.70;;;;;;5050477;28;20847;-84
2022/12/02 02:22:52;;;;;;;3.50;1.15;;;26.10;65.10;;;;;;5059519;28;20928;-84
2022/12/02 02:25:19;;;;;;;2.80;1.25;;;26.60;63.80;;;;;;5070290;28;20402;-84
2022/12/02 02:27:52;;;;;;;3.33;1.00;;;26.70;61.10;;;;;;5070457;28;20417;-87
2022/12/02 02:30:19;;;;;;;4.07;1.30;;;26.50;62.50;;;;;;5070147;28;20423;-83
2022/12/02 02:32:48;;;;;;;4.13;1.40;;;26.20;64.60;;;;;;5069665;28;20377;-83
2022/12/02 02:35:15;;;;;;;5.10;1.40;;;26.00;65.30;;;;;;5069891;28;20484;-85
2022/12/02 02:37:43;;;;;;;4.15;1.50;;;25.90;66.10;;;;;;5069447;28;20413;-84
2022/12/02 02:40:14;;;;;;;3.58;1.35;;;25.80;65.90;;;;;;5067066;28;20889;-84
2022/12/02 02:42:45;;;;;;;3.33;1.23;;;26.10;65.60;;;;;;5062396;28;20712;-85
2022/12/02 02:45:12;;;;;;;4.40;1.50;;;26.50;64.70;;;;;;5063699;28;20398;-84
2022/12/02 02:47:40;;;;;;;6.03;1.42;;;26.50;63.90;;;;;;5069982;28;20370;-83
2022/12/02 02:50:07;;;;;;;4.25;1.52;;;26.30;64.90;;;;;;5069474;28;20381;-87
2022/12/02 02:52:35;;;;;;;4.35;1.40;;;25.80;65.80;;;;;;5069553;28;20406;-83
2022/12/02 02:55:02;;;;;;;4.03;1.42;;;25.70;66.10;;;;;;5051657;28;20465;-89
2022/12/02 02:57:29;;;;;;;4.65;1.60;;;25.70;66.60;;;;;;5068945;28;20390;-83
2022/12/02 02:59:57;;;;;;;3.97;1.40;;;25.60;66.70;;;;;;5070170;28;20366;-83
2022/12/02 03:02:25;;;;;;;3.78;1.23;;;25.30;67.40;;;;;;5069342;28;20407;-84
2022/12/02 03:04:53;;;;;;;3.28;1.40;;;25.40;67.00;;;;;;5061980;28;20403;-85
2022/12/02 03:07:20;;;;;;;4.45;1.50;;;25.60;67.10;;;;;;5063432;28;20401;-83
2022/12/02 03:09:48;;;;;;;4.50;1.50;;;25.60;67.10;;;;;;5069649;28;20370;-84
2022/12/02 03:12:16;;;;;;;3.30;1.30;;;25.40;67.80;;;;;;5069141;28;20382;-85
2022/12/02 03:14:44;;;;;;;4.30;1.40;;;25.10;67.20;;;;;;5068822;28;20381;-83
2022/12/02 03:17:11;;;;;;;3.57;1.40;;;25.20;66.20;;;;;;5068643;28;20389;-83
2022/12/02 03:19:39;;;;;;;4.15;1.38;;;25.20;67.10;;;;;;5068720;28;20722;-84
2022/12/02 03:22:08;;;;;;;3.70;1.30;;;25.40;66.10;;;;;;5069131;28;20385;-84
2022/12/02 03:24:36;;;;;;;3.92;1.38;;;25.50;66.90;;;;;;5068618;28;20473;-83
2022/12/02 03:27:05;;;;;;;4.22;1.40;;;25.70;67.50;;;;;;5068471;28;20945;-84
2022/12/02 03:29:33;;;;;;;3.80;1.40;;;25.80;68.00;;;;;;5068709;28;20370;-84
2022/12/02 03:32:01;;;;;;;5.53;1.50;;;26.10;68.30;;;;;;5067716;28;20379;-83
2022/12/02 03:34:29;;;;;;;6.15;1.60;;;26.50;68.80;;;;;;5068739;28;20409;-84
2022/12/02 03:36:57;;;;;;;3.25;1.48;;;27.00;66.10;;;;;;5054255;28;21025;-84
2022/12/02 03:39:25;;;;;;;4.68;1.58;;;27.20;66.10;;;;;;5068021;28;20446;-84
2022/12/02 03:41:52;;;;;;;4.80;1.70;;;27.10;65.60;;;;;;5068021;28;20370;-84
2022/12/02 03:44:19;;;;;;;5.40;1.50;;;27.00;66.30;;;;;;5073179;28;20381;-85
2022/12/02 03:46:46;;;;;;;4.90;1.50;;;27.10;66.60;;;;;;5062829;28;20387;-85
2022/12/02 03:49:15;;;;;;;5.60;1.60;;;26.90;67.00;;;;;;5073678;28;20412;-90
2022/12/02 03:51:42;;;;;;;4.13;1.50;;;26.10;68.90;;;;;;5075612;28;20371;-84
2022/12/02 03:54:11;;;;;;;4.32;1.40;;;25.50;70.40;;;;;;5054057;28;20379;-83
2022/12/02 03:56:40;;;;;;;6.10;1.50;;;25.40;69.90;;;;;;5062398;28;20453;-83
2022/12/02 03:59:09;;;;;;;3.33;1.50;;;25.40;70.90;;;;;;5068603;28;20453;-85
2022/12/02 04:01:36;;;;;;;4.82;1.33;;;25.20;70.10;;;;;;5063253;28;20372;-86
2022/12/02 04:04:03;;;;;;;4.70;1.40;;;25.30;70.30;;;;;;5062027;28;20947;-89
2022/12/02 04:06:30;;;;;;;3.70;1.30;;;25.40;69.70;;;;;;5069051;28;20386;-85
2022/12/02 04:08:57;;;;;;;3.58;1.40;;;25.40;68.40;;;;;;5066725;28;20471;-88
2022/12/02 04:11:24;;;;;;;3.95;1.40;;;25.40;67.50;;;;;;5062131;28;20441;-88
2022/12/02 04:13:51;;;;;;;4.70;1.30;;;25.40;68.10;;;;;;5059583;28;20386;-87
2022/12/02 04:16:19;;;;;;;4.65;1.60;;;25.50;67.30;;;;;;5068244;28;20393;-90
2022/12/02 04:18:47;;;;;;;3.40;1.20;;;25.50;66.50;;;;;;5051154;28;20743;-87
2022/12/02 04:21:14;;;;;;;3.17;1.30;;;25.40;67.50;;;;;;5051106;28;20395;-84
2022/12/02 04:23:41;;;;;;;3.95;1.33;;;25.60;66.70;;;;;;5051821;28;20401;-88
2022/12/02 04:26:08;;;;;;;4.53;1.40;;;26.10;67.80;;;;;;5068233;28;20402;-86
2022/12/02 04:28:35;;;;;;;3.85;1.33;;;26.30;66.20;;;;;;5054075;28;20468;-88
2022/12/02 04:31:02;;;;;;;4.00;1.30;;;26.30;66.60;;;;;;5068962;28;20462;-83
2022/12/02 04:33:29;;;;;;;6.38;1.58;;;26.10;66.30;;;;;;5069089;28;20795;-85
2022/12/02 04:35:57;;;;;;;5.13;1.40;;;25.70;66.30;;;;;;5069907;28;20378;-85
2022/12/02 04:38:24;;;;;;;21.42;2.85;;;25.20;67.00;;;;;;5069046;28;20381;-85
2022/12/02 04:40:51;;;;;;;256.77;28.35;;;24.60;68.40;;;;;;5067278;28;20895;-83
2022/12/02 04:43:18;;;;;;;21.10;2.63;;;24.30;70.70;;;;;;5066158;28;20579;-83
2022/12/02 04:45:45;;;;;;;4.53;1.70;;;24.30;70.40;;;;;;5071450;28;20444;-88
2022/12/02 04:48:12;;;;;;;4.63;1.60;;;24.20;70.90;;;;;;5068683;28;20409;-86
2022/12/02 04:50:39;;;;;;;84.13;8.30;;;24.40;69.90;;;;;;5069196;28;20391;-83
2022/12/02 04:53:06;;;;;;;20.27;3.27;;;24.40;69.20;;;;;;5070543;28;20366;-85
2022/12/02 04:55:33;;;;;;;3.92;1.40;;;24.30;68.30;;;;;;5055825;28;20482;-85
2022/12/02 04:58:00;;;;;;;3.10;1.23;;;24.20;68.40;;;;;;5062301;28;20398;-83
2022/12/02 05:00:27;;;;;;;4.10;1.40;;;24.30;68.10;;;;;;5062828;28;20403;-85
2022/12/02 05:02:55;;;;;;;4.10;1.40;;;24.50;67.80;;;;;;5055427;28;20381;-85
2022/12/02 05:05:23;;;;;;;4.23;1.23;;;25.20;68.30;;;;;;5062964;28;20509;-82
2022/12/02 05:07:50;;;;;;;8.23;1.93;;;26.30;66.00;;;;;;5065012;28;20373;-86
2022/12/02 05:10:17;;;;;;;4.22;1.38;;;27.50;63.30;;;;;;5057245;28;20487;-84
2022/12/02 05:12:44;;;;;;;3.47;1.13;;;27.40;61.70;;;;;;5065618;28;20370;-86
2022/12/02 05:15:11;;;;;;;25.02;3.30;;;27.10;61.40;;;;;;5068554;28;20374;-85
2022/12/02 05:17:38;;;;;;;4.13;1.50;;;27.20;61.50;;;;;;5068505;28;20371;-84
2022/12/02 05:20:06;;;;;;;5.28;1.40;;;27.00;61.80;;;;;;5061174;28;20383;-86
2022/12/02 05:22:34;;;;;;;4.10;1.70;;;27.10;60.30;;;;;;5058207;28;20366;-85
2022/12/02 05:25:01;;;;;;;5.63;1.30;;;26.70;61.70;;;;;;5061370;28;20481;-85
2022/12/02 05:27:28;;;;;;;4.60;1.40;;;26.70;60.80;;;;;;5037382;28;20382;-83
2022/12/02 05:29:55;;;;;;;3.53;1.30;;;26.60;61.50;;;;;;5054694;28;20443;-84
2022/12/02 05:32:22;;;;;;;3.10;1.30;;;26.50;60.80;;;;;;5039295;28;20378;-89
2022/12/02 05:34:49;;;;;;;8.52;1.77;;;26.20;63.20;;;;;;5066462;28;20378;-89
2022/12/02 05:37:16;;;;;;;3.97;1.40;;;26.40;63.50;;;;;;5053123;28;20461;-85
2022/12/02 05:39:43;;;;;;;5.75;1.30;;;26.90;62.90;;;;;;5066325;28;20862;-89
2022/12/02 05:42:13;;;;;;;5.63;1.50;;;26.80;61.20;;;;;;5053781;28;20398;-87
2022/12/02 05:44:44;;;;;;;3.92;1.40;;;26.50;62.80;;;;;;5052715;28;20411;-88
2022/12/02 05:47:16;;;;;;;2.90;1.15;;;26.10;63.00;;;;;;5046175;28;20384;-86
2022/12/02 05:49:45;;;;;;;3.70;1.20;;;25.90;63.00;;;;;;5066465;28;20820;-92
2022/12/02 05:52:23;;;;;;;4.47;1.40;;;25.60;63.90;;;;;;5058830;28;20941;-85
2022/12/02 05:54:59;;;;;;;3.10;1.20;;;25.80;62.80;;;;;;5049521;28;20394;-86
2022/12/02 05:57:29;;;;;;;3.77;1.33;;;25.70;63.20;;;;;;5046060;28;20472;-88
2022/12/02 06:00:15;;;;;;;5.43;1.40;;;25.50;64.50;;;;;;5061494;28;20549;-84
2022/12/02 06:02:57;;;;;;;3.03;1.38;;;25.20;65.20;;;;;;5066095;28;20857;-92
2022/12/02 06:05:27;;;;;;;5.75;1.50;;;25.00;65.50;;;;;;5047310;28;20489;-86
2022/12/02 06:08:08;;;;;;;2.92;1.30;;;24.80;66.40;;;;;;5059583;28;20949;-86
2022/12/02 06:10:38;;;;;;;5.07;1.50;;;24.70;67.40;;;;;;5062746;28;20379;-84
2022/12/02 06:13:15;;;;;;;4.10;1.40;;;24.70;67.70;;;;;;5073141;28;20749;-84
2022/12/02 06:15:42;;;;;;;3.63;1.27;;;24.60;67.00;;;;;;5073292;28;20433;-88
2022/12/02 06:18:34;;;;;;;4.77;1.47;;;24.20;68.00;;;;;;5066031;28;20865;-86
2022/12/02 06:21:12;;;;;;;4.53;1.38;;;24.00;68.40;;;;;;5054965;28;20485;-84
2022/12/02 06:23:45;;;;;;;3.20;1.40;;;23.80;68.40;;;;;;5075684;28;20377;-85
2022/12/02 06:26:17;;;;;;;3.53;1.30;;;23.80;68.80;;;;;;5063525;28;20407;-84
2022/12/02 06:28:46;;;;;;;5.00;1.43;;;23.80;68.40;;;;;;5071714;28;20374;-84
2022/12/02 06:31:42;;;;;;;5.53;1.40;;;23.80;68.20;;;;;;5074554;28;20382;-83
2022/12/02 06:34:30;;;;;;;4.00;1.30;;;23.80;68.50;;;;;;5049787;28;20426;-84
2022/12/02 06:37:00;;;;;;;3.58;1.20;;;24.00;68.10;;;;;;5072934;28;20372;-86
2022/12/02 06:39:27;;;;;;;3.92;1.40;;;24.00;67.60;;;;;;5055420;28;20380;-85
2022/12/02 06:41:54;;;;;;;3.97;1.50;;;24.50;68.90;;;;;;5067549;28;20366;-83
2022/12/02 06:47:32;;;;;;;2.93;1.20;;;23.80;69.10;;;;;;5059523;28;20447;-88
2022/12/02 06:50:05;;;;;;;3.72;1.30;;;23.60;69.70;;;;;;5066203;28;20448;-82
2022/12/02 06:52:40;;;;;;;3.67;1.40;;;23.40;70.80;;;;;;5062135;28;20763;-83
2022/12/02 06:55:30;;;;;;;6.07;1.23;;;23.30;71.20;;;;;;5055128;28;20412;-83
2022/12/02 06:58:12;;;;;;;4.00;1.30;;;23.30;71.60;;;;;;5038133;28;20463;-84
2022/12/02 07:00:39;;;;;;;3.97;1.38;;;23.40;70.60;;;;;;5064791;28;20391;-81
2022/12/02 07:03:34;;;;;;;2.33;1.10;;;23.20;70.60;;;;;;5058565;28;20457;-84
2022/12/02 07:06:13;;;;;;;4.10;1.10;;;22.80;71.30;;;;;;5074344;28;20459;-84
2022/12/02 07:08:40;;;;;;;4.18;1.40;;;22.60;71.70;;;;;;5074341;28;20370;-82
2022/12/02 07:14:17;;;;;;;5.00;1.55;;;22.40;73.10;;;;;;5066100;28;20381;-82
2022/12/02 07:16:44;;;;;;;3.97;1.40;;;22.80;73.10;;;;;;5058776;28;20380;-82
2022/12/02 07:19:18;;;;;;;4.15;1.30;;;22.70;71.90;;;;;;5051269;28;20383;-88
2022/12/02 07:21:45;;;;;;;3.78;1.23;;;22.50;72.40;;;;;;5054134;28;20395;-83
2022/12/02 07:24:18;;;;;;;3.42;1.40;;;22.30;72.90;;;;;;5072042;28;20398;-84
2022/12/02 07:26:48;;;;;;;4.88;1.60;;;22.30;73.80;;;;;;5055519;28;20394;-83
2022/12/02 07:29:30;;;;;;;5.50;1.50;;;22.10;74.70;;;;;;5066836;28;20372;-84
2022/12/02 07:31:57;;;;;;;4.55;1.70;;;21.90;75.40;;;;;;5052519;28;20466;-84
2022/12/02 07:34:24;;;;;;;4.13;1.58;;;21.70;76.60;;;;;;5068453;28;20378;-84
2022/12/02 07:36:51;;;;;;;4.45;1.63;;;21.60;76.90;;;;;;5068945;28;20374;-91
2022/12/02 07:39:18;;;;;;;3.42;1.52;;;21.50;77.80;;;;;;5061942;28;20382;-84
2022/12/02 07:41:45;;;;;;;3.40;1.33;;;21.40;78.00;;;;;;5048453;28;20387;-85
2022/12/02 07:44:12;;;;;;;3.88;1.30;;;21.30;78.20;;;;;;5062950;28;20379;-86
2022/12/02 07:46:39;;;;;;;5.25;1.50;;;21.30;78.40;;;;;;5039638;28;20394;-88
2022/12/02 07:49:06;;;;;;;5.35;1.60;;;21.20;78.80;;;;;;5066362;28;20439;-83
2022/12/02 07:51:33;;;;;;;5.03;1.65;;;21.10;79.80;;;;;;5057915;28;20860;-82
2022/12/02 07:54:00;;;;;;;5.47;1.52;;;21.00;80.60;;;;;;5067407;28;20451;-76
2022/12/02 07:56:27;;;;;;;4.07;1.40;;;20.80;81.70;;;;;;5053654;28;20429;-85
2022/12/02 07:58:54;;;;;;;5.28;1.80;;;20.70;82.70;;;;;;5057533;28;20395;-85
2022/12/02 08:01:22;;;;;;;2.88;1.40;;;20.60;83.80;;;;;;5063408;28;20396;-82
2022/12/02 08:03:50;;;;;;;5.00;1.60;;;20.50;84.80;;;;;;5061859;28;20370;-85
2022/12/02 08:06:17;;;;;;;6.07;1.50;;;20.30;85.50;;;;;;5069356;28;20393;-86
2022/12/02 08:08:44;;;;;;;5.90;1.65;;;20.30;86.60;;;;;;5056535;28;20382;-86
2022/12/02 08:11:11;;;;;;;4.93;1.67;;;20.20;86.90;;;;;;5079871;28;20378;-87
2022/12/02 08:13:38;;;;;;;4.78;1.50;;;20.20;87.50;;;;;;5074896;28;20736;-85
2022/12/02 08:16:05;;;;;;;3.95;1.52;;;20.20;87.60;;;;;;5070727;28;20374;-87
2022/12/02 08:18:32;;;;;;;5.30;1.50;;;20.20;87.90;;;;;;5069477;28;20378;-85
2022/12/02 08:20:59;;;;;;;4.47;1.52;;;20.30;88.70;;;;;;5068687;28;20846;-87
2022/12/02 08:23:26;;;;;;;4.40;1.58;;;20.30;89.60;;;;;;5068806;28;20370;-82
2022/12/02 08:25:53;;;;;;;5.70;1.60;;;20.30;90.10;;;;;;5068713;28;20452;-84
2022/12/02 08:28:20;;;;;;;4.67;1.70;;;20.30;90.60;;;;;;5068921;28;20840;-84
2022/12/02 08:30:47;;;;;;;5.43;1.90;;;20.20;91.00;;;;;;5068597;28;20513;-84
2022/12/02 08:33:14;;;;;;;6.80;3.03;;;20.20;91.90;;;;;;5068652;28;20832;-85
2022/12/02 08:35:41;;;;;;;5.93;2.60;;;20.10;92.30;;;;;;5068543;28;20447;-80
2022/12/02 08:38:08;;;;;;;7.38;3.03;;;20.00;92.90;;;;;;5068610;28;20528;-86
2022/12/02 08:40:35;;;;;;;4.65;1.85;;;19.90;94.00;;;;;;5068684;28;20943;-77
2022/12/02 08:43:02;;;;;;;5.03;2.30;;;19.80;95.50;;;;;;5068489;28;20377;-85
2022/12/02 08:45:30;;;;;;;6.55;2.72;;;19.70;96.40;;;;;;5068154;28;20405;-80
2022/12/02 08:47:57;;;;;;;6.13;2.10;;;19.60;97.40;;;;;;5068678;28;20370;-81
2022/12/02 08:50:24;;;;;;;5.30;1.80;;;19.50;98.20;;;;;;5068714;28;20382;-81
2022/12/02 08:52:52;;;;;;;8.80;3.83;;;19.40;99.00;;;;;;5068289;28;20688;-83
2022/12/02 08:55:19;;;;;;;6.10;3.00;;;19.30;99.70;;;;;;5068456;28;20830;-84
2022/12/02 08:57:46;;;;;;;6.05;2.60;;;19.30;99.90;;;;;;5068320;28;20392;-85
2022/12/02 09:00:13;;;;;;;5.68;2.00;;;19.20;99.90;;;;;;5068458;28;20870;-84
2022/12/02 09:02:40;;;;;;;3.90;1.95;;;19.20;99.90;;;;;;5068746;28;20370;-84
2022/12/02 09:05:07;;;;;;;8.53;4.83;;;19.00;99.90;;;;;;5069393;28;20398;-85
2022/12/02 09:07:34;;;;;;;13.32;6.00;;;18.90;99.90;;;;;;5068364;28;20841;-83
2022/12/02 09:10:02;;;;;;;9.90;4.55;;;18.80;99.90;;;;;;5068408;28;20382;-83
2022/12/02 09:12:29;;;;;;;6.25;2.10;;;18.70;99.90;;;;;;5068425;28;20378;-84
2022/12/02 09:14:56;;;;;;;7.72;3.10;;;18.60;99.90;;;;;;5068386;28;20457;-85
2022/12/02 09:17:23;;;;;;;10.57;4.63;;;18.50;99.90;;;;;;5069034;28;20378;-83
2022/12/02 09:19:50;;;;;;;5.68;2.20;;;18.40;99.90;;;;;;5069469;28;20374;-89
2022/12/02 09:22:17;;;;;;;5.37;2.23;;;18.30;99.90;;;;;;5068402;28;20381;-87
2022/12/02 09:24:44;;;;;;;7.22;3.45;;;18.20;99.90;;;;;;5068425;28;20678;-82
2022/12/02 09:27:11;;;;;;;6.60;2.90;;;18.20;99.90;;;;;;5068187;28;20394;-86
2022/12/02 09:29:38;;;;;;;6.22;2.40;;;18.20;99.90;;;;;;5068723;28;20371;-83
2022/12/02 09:32:06;;;;;;;5.45;2.58;;;18.10;99.90;;;;;;5068620;28;20378;-84
2022/12/02 09:34:33;;;;;;;7.47;3.10;;;18.10;99.90;;;;;;5072027;28;20382;-82
2022/12/02 09:37:00;;;;;;;11.48;4.72;;;18.10;99.90;;;;;;5054284;28;20766;-84
2022/12/02 09:39:27;;;;;;;7.97;4.10;;;18.00;99.90;;;;;;5072811;28;20862;-81
2022/12/02 09:41:54;;;;;;;10.15;4.75;;;18.00;99.90;;;;;;5072274;28;20388;-81
2022/12/02 09:44:21;;;;;;;4.57;1.95;;;17.90;99.90;;;;;;5071693;28;20366;-82
2022/12/02 09:46:48;;;;;;;5.97;2.60;;;17.90;99.90;;;;;;5071843;28;20481;-86
2022/12/02 09:49:16;;;;;;;6.30;2.90;;;17.80;99.90;;;;;;5071824;28;20366;-85
2022/12/02 09:51:43;;;;;;;6.75;2.65;;;17.70;99.90;;;;;;5071765;28;20382;-82
2022/12/02 09:54:14;;;;;;;7.22;2.17;;;17.70;99.90;;;;;;5072140;28;20927;-86
2022/12/02 09:56:41;;;;;;;6.70;2.90;;;17.60;99.90;;;;;;5071626;28;20850;-83
2022/12/02 09:59:16;;;;;;;7.10;3.78;;;17.60;99.90;;;;;;5071642;28;20372;-83
2022/12/02 10:01:46;;;;;;;8.60;3.40;;;17.60;99.90;;;;;;5071400;28;20885;-82
2022/12/02 10:04:23;;;;;;;7.03;2.43;;;17.50;99.90;;;;;;5071866;28;20378;-82
2022/12/02 10:06:50;;;;;;;6.88;2.50;;;17.50;99.90;;;;;;5071495;28;20413;-86
2022/12/02 10:09:29;;;;;;;7.20;3.30;;;17.40;99.90;;;;;;5071635;28;20374;-83
2022/12/02 10:11:57;;;;;;;6.78;3.47;;;17.40;99.90;;;;;;5069837;28;20930;-83
2022/12/02 10:14:24;;;;;;;8.55;2.30;;;17.40;99.90;;;;;;5072305;28;20370;-87
2022/12/02 10:16:53;;;;;;;6.78;2.78;;;17.40;99.90;;;;;;5071922;28;20418;-85
2022/12/02 10:19:20;;;;;;;7.68;2.22;;;17.40;99.90;;;;;;5071047;28;20366;-84
2022/12/02 10:21:48;;;;;;;6.53;2.70;;;17.40;99.90;;;;;;5070965;28;20381;-81
2022/12/02 10:24:15;;;;;;;5.40;2.30;;;17.40;99.90;;;;;;5070970;28;20374;-81
2022/12/02 10:26:51;;;;;;;6.57;2.50;;;17.40;99.90;;;;;;5070844;28;20382;-85
2022/12/02 10:29:18;;;;;;;6.50;2.40;;;17.40;99.90;;;;;;5070887;28;20367;-82
2022/12/02 10:32:03;;;;;;;6.13;2.42;;;17.40;99.90;;;;;;5072761;28;20706;-81
2022/12/02 10:34:32;;;;;;;5.28;2.42;;;17.40;99.90;;;;;;5071555;28;20721;-84
2022/12/02 10:37:24;;;;;;;5.70;2.35;;;17.30;99.90;;;;;;5071829;28;20378;-81
2022/12/02 10:40:22;;;;;;;5.15;1.92;;;17.30;99.90;;;;;;5071738;28;20366;-86
2022/12/02 10:43:07;;;;;;;6.40;2.00;;;17.30;99.90;;;;;;4990079;28;20480;-83
2022/12/02 10:45:34;;;;;;;5.25;2.08;;;17.30;99.90;;;;;;5005135;28;20951;-84
2022/12/02 10:48:16;;;;;;;5.60;2.10;;;17.30;99.90;;;;;;4989859;28;20384;-85
2022/12/02 10:50:44;;;;;;;7.45;2.33;;;17.30;99.90;;;;;;4989393;28;20853;-82
2022/12/02 10:53:16;;;;;;;6.47;2.25;;;17.30;99.90;;;;;;4989689;28;20376;-86
2022/12/02 10:55:45;;;;;;;5.18;2.08;;;17.20;99.90;;;;;;4989426;28;20415;-82
2022/12/02 10:58:22;;;;;;;6.07;2.20;;;17.20;99.90;;;;;;4989091;28;20400;-83
2022/12/02 11:00:49;;;;;;;9.95;2.28;;;17.20;99.90;;;;;;4989635;28;20825;-83
2022/12/02 11:03:16;;;;;;;14.48;2.67;;;17.10;99.90;;;;;;4988972;28;20860;-82
2022/12/02 11:05:43;;;;;;;13.80;2.83;;;17.10;99.90;;;;;;4988901;28;20862;-81
2022/12/02 11:08:20;;;;;;;19.45;2.90;;;16.90;99.90;;;;;;4989498;28;20424;-81
2022/12/02 11:11:14;;;;;;;19.40;3.35;;;16.90;99.90;;;;;;4988541;28;20434;-82
2022/12/02 11:14:00;;;;;;;23.15;3.45;;;16.80;99.90;;;;;;4988789;28;20560;-81
2022/12/02 11:16:27;;;;;;;23.97;3.23;;;16.70;99.90;;;;;;4989276;28;20924;-83
2022/12/02 11:19:10;;;;;;;15.20;3.03;;;16.60;99.90;;;;;;5002451;28;20412;-82
2022/12/02 11:21:40;;;;;;;27.48;4.25;;;16.50;99.90;;;;;;5052355;28;20386;-81
2022/12/02 11:24:27;;;;;;;52.72;5.60;;;16.50;99.90;;;;;;5070548;28;20419;-82
2022/12/02 11:29:31;;;;;;;49.60;5.70;;;16.50;99.90;;;;;;5072161;28;20406;-84
2022/12/02 11:32:21;;;;;;;55.28;5.80;;;16.60;99.90;;;;;;5054486;28;20820;-81
2022/12/02 11:34:54;;;;;;;51.87;5.40;;;16.60;99.90;;;;;;5073079;28;20378;-81
2022/12/02 11:37:34;;;;;;;42.35;5.95;;;16.60;99.90;;;;;;5072925;28;20749;-84
2022/12/02 11:40:21;;;;;;;39.03;5.20;;;16.60;99.90;;;;;;5075713;28;20449;-81
2022/12/02 11:42:48;;;;;;;21.88;3.85;;;16.50;99.90;;;;;;4995701;28;20460;-81
2022/12/02 11:45:15;;;;;;;13.13;3.20;;;16.40;99.90;;;;;;4991862;28;20409;-81
2022/12/02 11:47:45;;;;;;;23.80;4.20;;;16.30;99.90;;;;;;4988999;28;20376;-81
2022/12/02 11:50:15;;;;;;;21.08;3.88;;;16.20;99.90;;;;;;4988385;28;20726;-84
2022/12/02 11:52:51;;;;;;;18.00;3.92;;;16.20;99.90;;;;;;4988615;28;20409;-82
2022/12/02 11:55:20;;;;;;;14.68;3.20;;;16.10;99.90;;;;;;4988158;28;20373;-85
2022/12/02 11:57:56;;;;;;;14.87;3.27;;;16.10;99.90;;;;;;4987816;28;20761;-82
2022/12/02 12:00:30;;;;;;;16.58;3.33;;;16.10;99.90;;;;;;4988267;28;20395;-84
2022/12/02 12:03:16;;;;;;;32.17;4.45;;;16.00;99.90;;;;;;4988644;28;20857;-81
2022/12/02 12:06:07;;;;;;;58.92;6.70;;;16.00;99.90;;;;;;4988249;28;20423;-85
2022/12/02 12:08:36;;;;;;;67.15;7.05;;;16.00;99.90;;;;;;4987633;28;20412;-81
2022/12/02 12:11:24;;;;;;;57.45;6.20;;;15.90;99.90;;;;;;4987746;28;20403;-82
2022/12/02 12:14:01;;;;;;;66.72;6.85;;;15.90;99.90;;;;;;4987713;28;20807;-81
2022/12/02 12:16:33;;;;;;;51.53;6.20;;;15.90;99.90;;;;;;4987677;28;20392;-83
2022/12/02 12:19:21;;;;;;;61.25;6.88;;;15.90;99.90;;;;;;4999054;28;20382;-81
2022/12/02 12:21:59;;;;;;;53.78;6.38;;;15.90;99.90;;;;;;5068755;28;20379;-81
2022/12/02 12:24:27;;;;;;;43.72;5.97;;;15.90;99.90;;;;;;5068551;28;20405;-81
2022/12/02 12:27:04;;;;;;;40.88;5.57;;;15.80;99.90;;;;;;5071442;28;20378;-83
2022/12/02 12:29:33;;;;;;;23.35;4.07;;;15.80;99.90;;;;;;5069573;28;20380;-81
2022/12/02 12:32:01;;;;;;;24.98;4.00;;;15.80;99.90;;;;;;5069479;28;20374;-81
2022/12/02 12:34:29;;;;;;;21.70;3.45;;;15.80;99.90;;;;;;5068779;28;20388;-81
2022/12/02 12:36:57;;;;;;;20.75;3.78;;;15.80;99.90;;;;;;5068809;28;20390;-80
2022/12/02 12:39:24;;;;;;;21.50;3.85;;;15.70;99.90;;;;;;5068431;28;20850;-81
2022/12/02 12:41:51;;;;;;;23.27;3.80;;;15.70;99.90;;;;;;5068687;28;20389;-82
2022/12/02 12:44:18;;;;;;;17.27;3.20;;;15.70;99.90;;;;;;5068619;28;20371;-81
2022/12/02 12:46:45;;;;;;;20.27;3.40;;;15.70;99.90;;;;;;5068685;28;20408;-80
2022/12/02 12:49:12;;;;;;;12.70;3.00;;;15.60;99.90;;;;;;5068464;28;20370;-80
2022/12/02 12:51:39;;;;;;;23.75;3.83;;;15.60;99.90;;;;;;5068506;28;20452;-84
2022/12/02 12:54:06;;;;;;;33.70;4.40;;;15.60;99.90;;;;;;5068615;28;20406;-80
2022/12/02 12:56:33;;;;;;;24.02;4.18;;;15.50;99.90;;;;;;5068266;28;20374;-80
2022/12/02 12:59:00;;;;;;;28.15;3.88;;;15.50;99.90;;;;;;5068367;28;20382;-83
2022/12/02 13:01:27;;;;;;;24.95;3.80;;;15.40;99.90;;;;;;5068821;28;20894;-84
2022/12/02 13:03:54;;;;;;;21.08;3.75;;;15.30;99.90;;;;;;5071226;28;20370;-87
2022/12/02 13:06:21;;;;;;;24.17;3.70;;;15.30;99.90;;;;;;5068979;28;20409;-79
2022/12/02 13:08:48;;;;;;;15.25;3.03;;;15.30;99.90;;;;;;5071826;28;20449;-81
2022/12/02 13:11:15;;;;;;;11.07;2.90;;;15.30;99.90;;;;;;5072992;28;20400;-80